createdAt,value
2017-12-26T00:00:25.621Z,4.68
2017-12-26T00:01:06.702Z,4.5
2017-12-26T00:01:47.619Z,4.56
2017-12-26T00:02:28.173Z,4.56
2017-12-26T00:03:09.014Z,4.59
2017-12-26T00:03:49.869Z,4.54
2017-12-26T00:04:30.303Z,4.64
2017-12-26T00:05:10.863Z,4.64
2017-12-26T00:05:51.253Z,4.62
2017-12-26T00:06:31.757Z,4.61
2017-12-26T00:07:12.134Z,4.54
2017-12-26T00:10:11.382Z,4.61
2017-12-26T00:10:51.624Z,4.61
2017-12-26T00:11:32.122Z,4.61
2017-12-26T00:12:12.722Z,4.64
2017-12-26T00:12:53.058Z,4.64
2017-12-26T00:13:33.521Z,4.67
2017-12-26T00:14:15.880Z,4.59
2017-12-26T00:14:56.411Z,4.57
2017-12-26T00:15:36.807Z,4.62
2017-12-26T00:17:53.047Z,4.72
2017-12-26T00:18:38.999Z,4.69
2017-12-26T00:19:26.388Z,4.71
2017-12-26T00:20:06.738Z,4.79
2017-12-26T00:20:47.111Z,4.8
2017-12-26T00:21:27.495Z,4.8
2017-12-26T00:22:08.224Z,4.83
2017-12-26T00:22:51.073Z,4.87
2017-12-26T00:23:32.265Z,4.9
2017-12-26T00:24:12.151Z,4.88
2017-12-26T00:24:54.374Z,4.8
2017-12-26T00:25:34.772Z,4.87
2017-12-26T00:26:15.137Z,4.88
2017-12-26T00:26:55.813Z,4.93
2017-12-26T00:27:36.174Z,4.87
2017-12-26T00:28:16.814Z,4.91
2017-12-26T00:28:57.184Z,4.93
2017-12-26T00:29:37.575Z,4.94
2017-12-26T00:30:18.099Z,5.01
2017-12-26T00:34:42.635Z,5.24
2017-12-26T00:35:25.674Z,5.15
2017-12-26T00:36:05.516Z,5.23
2017-12-26T00:36:45.787Z,5.17
2017-12-26T00:37:26.186Z,5.23
2017-12-26T00:38:06.587Z,5.2
2017-12-26T00:38:47.024Z,5.37
2017-12-26T00:39:27.659Z,5.3
2017-12-26T00:40:08.383Z,5.29
2017-12-26T00:40:48.795Z,5.27
2017-12-26T00:41:29.298Z,5.29
2017-12-26T00:42:10.829Z,5.32
2017-12-26T00:42:51.595Z,5.37
2017-12-26T00:43:31.970Z,5.44
2017-12-26T00:44:13.326Z,5.42
2017-12-26T00:44:54.441Z,5.45
2017-12-26T00:45:36.247Z,5.41
2017-12-26T00:46:16.695Z,5.45
2017-12-26T00:46:57.445Z,5.48
2017-12-26T00:47:38.127Z,5.55
2017-12-26T00:48:21.170Z,5.63
2017-12-26T00:49:02.552Z,5.6
2017-12-26T00:49:42.869Z,5.62
2017-12-26T00:50:23.585Z,5.66
2017-12-26T00:51:03.734Z,5.66
2017-12-26T00:51:44.115Z,5.75
2017-12-26T00:52:25.191Z,5.67
2017-12-26T00:53:08.353Z,5.7
2017-12-26T00:53:49.434Z,5.73
2017-12-26T00:54:30.033Z,5.73
2017-12-26T00:55:10.500Z,5.74
2017-12-26T00:55:52.096Z,5.69
2017-12-26T00:56:32.294Z,5.75
2017-12-26T00:57:13.437Z,5.8
2017-12-26T00:57:54.513Z,5.75
2017-12-26T00:58:34.964Z,5.78
2017-12-26T01:02:09.664Z,5.96
2017-12-26T01:02:56.776Z,6.05
2017-12-26T01:03:37.568Z,6.14
2017-12-26T01:04:17.983Z,6.02
2017-12-26T01:04:58.387Z,6.01
2017-12-26T01:05:39.167Z,6.21
2017-12-26T01:06:19.704Z,6.11
2017-12-26T01:07:00.147Z,6.24
2017-12-26T01:07:40.596Z,6.28
2017-12-26T01:08:23.323Z,6.48
2017-12-26T01:09:04.852Z,6.5
2017-12-26T01:09:45.251Z,6.53
2017-12-26T01:10:25.745Z,6.71
2017-12-26T01:11:06.222Z,6.78
2017-12-26T01:11:46.720Z,6.81
2017-12-26T01:12:27.078Z,6.89
2017-12-26T01:13:07.516Z,6.93
2017-12-26T01:13:48.031Z,7.04
2017-12-26T01:14:28.782Z,7
2017-12-26T01:15:10.030Z,7
2017-12-26T01:15:51.903Z,7
2017-12-26T01:16:33.022Z,6.93
2017-12-26T01:17:14.322Z,6.99
2017-12-26T01:17:55.135Z,7.11
2017-12-26T01:18:35.476Z,7.18
2017-12-26T01:19:15.929Z,7.15
2017-12-26T01:19:56.223Z,7.16
2017-12-26T01:20:36.598Z,7.14
2017-12-26T01:21:17.636Z,7.3
2017-12-26T01:21:57.805Z,7.23
2017-12-26T01:22:38.208Z,7.27
2017-12-26T01:23:18.564Z,7.36
2017-12-26T01:23:59.100Z,7.48
2017-12-26T01:24:39.793Z,7.51
2017-12-26T01:25:20.108Z,7.57
2017-12-26T01:26:00.506Z,7.57
2017-12-26T01:26:41.039Z,7.6
2017-12-26T01:27:21.666Z,7.51
2017-12-26T01:28:02.718Z,7.51
2017-12-26T01:28:43.096Z,7.55
2017-12-26T01:29:23.445Z,7.57
2017-12-26T01:30:03.965Z,7.58
2017-12-26T01:30:44.403Z,7.58
2017-12-26T01:31:24.746Z,7.66
2017-12-26T01:32:05.426Z,7.74
2017-12-26T01:32:45.954Z,7.92
2017-12-26T01:33:26.270Z,7.94
2017-12-26T01:34:06.710Z,7.95
2017-12-26T01:34:47.212Z,8.03
2017-12-26T01:35:27.620Z,8
2017-12-26T01:36:07.928Z,8.04
2017-12-26T01:36:48.426Z,8.03
2017-12-26T01:37:28.812Z,8.03
2017-12-26T01:38:09.208Z,7.89
2017-12-26T01:38:49.667Z,7.96
2017-12-26T01:39:29.998Z,7.95
2017-12-26T01:40:10.460Z,7.89
2017-12-26T01:40:50.853Z,7.92
2017-12-26T01:41:31.378Z,7.92
2017-12-26T01:42:11.664Z,8.03
2017-12-26T01:42:52.226Z,7.91
2017-12-26T01:43:32.647Z,7.96
2017-12-26T01:44:12.913Z,7.86
2017-12-26T01:44:53.347Z,7.85
2017-12-26T01:45:33.736Z,7.85
2017-12-26T01:46:14.089Z,7.76
2017-12-26T01:46:54.504Z,7.67
2017-12-26T01:47:34.953Z,7.6
2017-12-26T01:48:15.418Z,7.63
2017-12-26T01:48:55.816Z,7.58
2017-12-26T01:49:36.202Z,7.48
2017-12-26T01:50:16.554Z,7.47
2017-12-26T01:50:56.994Z,7.45
2017-12-26T01:51:37.437Z,7.48
2017-12-26T01:52:17.831Z,7.47
2017-12-26T01:52:58.259Z,7.37
2017-12-26T01:53:38.692Z,7.42
2017-12-26T01:54:19.046Z,7.34
2017-12-26T01:54:59.865Z,7.32
2017-12-26T01:55:40.289Z,7.26
2017-12-26T01:56:20.659Z,7.34
2017-12-26T01:57:01.058Z,7.3
2017-12-26T01:57:41.455Z,7.32
2017-12-26T01:58:22.057Z,7.36
2017-12-26T01:59:02.387Z,7.33
2017-12-26T01:59:42.790Z,7.37
2017-12-26T02:00:23.264Z,7.47
2017-12-26T02:01:03.644Z,7.5
2017-12-26T02:01:44.056Z,7.45
2017-12-26T02:02:24.503Z,7.57
2017-12-26T02:03:05.293Z,7.58
2017-12-26T02:03:45.703Z,7.6
2017-12-26T02:04:26.364Z,7.62
2017-12-26T02:05:06.631Z,7.62
2017-12-26T02:05:47.096Z,7.76
2017-12-26T02:06:27.592Z,7.73
2017-12-26T02:07:08.127Z,7.74
2017-12-26T02:07:48.757Z,7.69
2017-12-26T02:08:29.278Z,7.73
2017-12-26T02:09:09.752Z,7.82
2017-12-26T02:09:50.095Z,7.85
2017-12-26T02:10:30.524Z,7.79
2017-12-26T02:11:11.003Z,7.82
2017-12-26T02:11:51.837Z,7.85
2017-12-26T02:12:32.329Z,7.95
2017-12-26T02:13:12.634Z,8.02
2017-12-26T02:13:53.301Z,7.99
2017-12-26T02:14:33.731Z,8.03
2017-12-26T02:15:14.437Z,8.06
2017-12-26T02:15:54.792Z,8.13
2017-12-26T02:16:35.189Z,8.14
2017-12-26T02:17:15.583Z,8.22
2017-12-26T02:17:56.126Z,8.18
2017-12-26T02:18:36.488Z,8.22
2017-12-26T02:19:17.619Z,8.29
2017-12-26T02:19:58.133Z,8.21
2017-12-26T02:20:38.707Z,8.28
2017-12-26T02:21:19.168Z,8.25
2017-12-26T02:21:59.409Z,8.25
2017-12-26T02:22:39.860Z,8.21
2017-12-26T02:23:20.348Z,8.28
2017-12-26T02:24:00.631Z,8.1
2017-12-26T02:24:41.110Z,8.14
2017-12-26T02:25:21.501Z,8.18
2017-12-26T02:26:01.961Z,8.17
2017-12-26T02:26:42.404Z,8.22
2017-12-26T02:27:22.762Z,8.29
2017-12-26T02:28:03.271Z,8.18
2017-12-26T02:28:43.847Z,8.29
2017-12-26T02:29:24.458Z,8.2
2017-12-26T02:30:05.047Z,8.18
2017-12-26T02:30:45.453Z,8.18
2017-12-26T02:31:25.889Z,8.17
2017-12-26T02:32:06.260Z,8.2
2017-12-26T02:32:46.757Z,8.21
2017-12-26T02:33:27.460Z,8.18
2017-12-26T02:34:08.064Z,8.18
2017-12-26T02:34:48.420Z,8.13
2017-12-26T02:35:28.837Z,8.07
2017-12-26T02:36:09.266Z,8.1
2017-12-26T02:36:49.761Z,8.03
2017-12-26T02:37:30.698Z,8.06
2017-12-26T02:38:10.782Z,7.92
2017-12-26T02:38:51.231Z,7.91
2017-12-26T02:39:31.669Z,7.94
2017-12-26T02:40:12.107Z,7.86
2017-12-26T02:40:52.478Z,7.94
2017-12-26T02:41:33.246Z,7.89
2017-12-26T02:42:13.538Z,7.81
2017-12-26T02:42:53.930Z,7.81
2017-12-26T02:43:36.916Z,7.76
2017-12-26T02:44:17.368Z,7.81
2017-12-26T02:44:57.807Z,7.74
2017-12-26T02:45:38.372Z,7.66
2017-12-26T02:46:18.796Z,7.67
2017-12-26T02:46:59.210Z,7.63
2017-12-26T02:47:39.592Z,7.6
2017-12-26T02:48:20.024Z,7.63
2017-12-26T02:49:00.407Z,7.57
2017-12-26T02:49:40.927Z,7.63
2017-12-26T02:50:21.312Z,7.63
2017-12-26T02:51:01.904Z,7.57
2017-12-26T02:51:42.278Z,7.52
2017-12-26T02:52:22.809Z,7.55
2017-12-26T02:53:03.225Z,7.52
2017-12-26T02:53:43.929Z,7.63
2017-12-26T02:54:24.393Z,7.6
2017-12-26T02:55:04.764Z,7.58
2017-12-26T02:55:45.112Z,7.66
2017-12-26T02:56:25.590Z,7.66
2017-12-26T02:57:05.992Z,7.62
2017-12-26T02:57:46.546Z,7.66
2017-12-26T02:58:27.056Z,7.6
2017-12-26T02:59:07.547Z,7.58
2017-12-26T02:59:48.053Z,7.58
2017-12-26T03:00:28.764Z,7.6
2017-12-26T03:01:08.973Z,7.73
2017-12-26T03:01:49.468Z,7.76
2017-12-26T03:02:30.089Z,7.67
2017-12-26T03:03:10.247Z,7.79
2017-12-26T03:03:50.949Z,7.76
2017-12-26T03:04:31.481Z,7.69
2017-12-26T03:05:12.180Z,7.69
2017-12-26T03:05:52.185Z,7.69
2017-12-26T03:06:32.695Z,7.67
2017-12-26T03:07:13.209Z,7.63
2017-12-26T03:07:53.610Z,7.62
2017-12-26T03:08:34.022Z,7.54
2017-12-26T03:09:14.579Z,7.6
2017-12-26T03:09:54.924Z,7.58
2017-12-26T03:10:35.486Z,7.6
2017-12-26T03:11:15.794Z,7.58
2017-12-26T03:11:56.194Z,7.52
2017-12-26T03:12:36.641Z,7.52
2017-12-26T03:13:17.011Z,7.5
2017-12-26T03:13:57.557Z,7.44
2017-12-26T03:14:37.926Z,7.48
2017-12-26T03:15:18.297Z,7.42
2017-12-26T03:15:58.687Z,7.37
2017-12-26T03:16:39.172Z,7.47
2017-12-26T03:17:19.506Z,7.44
2017-12-26T03:18:00.015Z,7.47
2017-12-26T03:18:40.515Z,7.54
2017-12-26T03:19:20.951Z,7.57
2017-12-26T03:20:01.376Z,7.54
2017-12-26T03:20:41.695Z,7.55
2017-12-26T03:21:22.127Z,7.52
2017-12-26T03:22:02.557Z,7.66
2017-12-26T03:22:43.418Z,7.58
2017-12-26T03:23:23.585Z,7.63
2017-12-26T03:24:04.029Z,7.58
2017-12-26T03:24:44.665Z,7.52
2017-12-26T03:25:24.948Z,7.6
2017-12-26T03:26:05.805Z,7.51
2017-12-26T03:26:46.231Z,7.55
2017-12-26T03:27:26.643Z,7.54
2017-12-26T03:28:07.083Z,7.54
2017-12-26T03:28:47.482Z,7.57
2017-12-26T03:29:28.093Z,7.6
2017-12-26T03:30:08.441Z,7.5
2017-12-26T03:30:48.924Z,7.51
2017-12-26T03:31:29.233Z,7.54
2017-12-26T03:32:09.626Z,7.47
2017-12-26T03:32:50.086Z,7.55
2017-12-26T03:33:30.554Z,7.48
2017-12-26T03:34:10.975Z,7.55
2017-12-26T03:34:51.501Z,7.55
2017-12-26T03:35:31.901Z,7.62
2017-12-26T03:36:12.396Z,7.62
2017-12-26T03:36:52.845Z,7.6
2017-12-26T03:37:33.268Z,7.58
2017-12-26T03:38:13.768Z,7.66
2017-12-26T03:38:54.163Z,7.6
2017-12-26T03:39:34.566Z,7.6
2017-12-26T03:40:16.317Z,7.58
2017-12-26T03:40:57.063Z,7.63
2017-12-26T03:41:37.354Z,7.55
2017-12-26T03:42:17.764Z,7.58
2017-12-26T03:42:58.557Z,7.58
2017-12-26T03:43:39.540Z,7.57
2017-12-26T03:44:20.729Z,7.55
2017-12-26T03:45:01.079Z,7.55
2017-12-26T03:45:41.371Z,7.6
2017-12-26T03:46:21.882Z,7.54
2017-12-26T03:47:02.149Z,7.54
2017-12-26T03:47:42.744Z,7.51
2017-12-26T03:48:23.193Z,7.54
2017-12-26T03:49:03.603Z,7.48
2017-12-26T03:49:44.293Z,7.48
2017-12-26T03:50:24.583Z,7.45
2017-12-26T03:51:04.952Z,7.47
2017-12-26T03:51:45.329Z,7.52
2017-12-26T03:52:25.841Z,7.47
2017-12-26T03:53:06.266Z,7.45
2017-12-26T03:53:46.973Z,7.54
2017-12-26T03:54:27.408Z,7.5
2017-12-26T03:55:07.782Z,7.5
2017-12-26T03:55:48.210Z,7.57
2017-12-26T03:56:28.635Z,7.54
2017-12-26T03:57:09.061Z,7.42
2017-12-26T03:57:49.490Z,7.52
2017-12-26T03:58:30.093Z,7.48
2017-12-26T03:59:10.317Z,7.48
2017-12-26T03:59:50.778Z,7.51
2017-12-26T04:00:31.237Z,7.42
2017-12-26T04:01:11.650Z,7.47
2017-12-26T04:01:51.957Z,7.48
2017-12-26T04:02:32.414Z,7.5
2017-12-26T04:03:12.827Z,7.48
2017-12-26T04:46:18.990Z,7.51
2017-12-26T04:47:01.139Z,7.52
2017-12-26T04:47:41.640Z,7.67
2017-12-26T04:48:22.246Z,7.66
2017-12-26T04:49:03.034Z,7.7
2017-12-26T04:49:44.258Z,7.69
2017-12-26T04:50:23.888Z,7.73
2017-12-26T04:51:04.440Z,7.81
2017-12-26T04:51:44.896Z,7.81
2017-12-26T04:52:25.394Z,7.82
2017-12-26T04:53:06.822Z,7.92
2017-12-26T04:53:47.272Z,7.95
2017-12-26T04:54:28.227Z,7.94
2017-12-26T04:55:08.669Z,7.96
2017-12-26T04:58:09.328Z,8.06
2017-12-26T04:58:48.020Z,8.07
2017-12-26T04:59:28.598Z,8.1
2017-12-26T05:00:09.040Z,8.14
2017-12-26T05:00:49.690Z,8.21
2017-12-26T05:01:30.499Z,8.17
2017-12-26T05:02:10.851Z,8.21
2017-12-26T05:02:51.516Z,8.25
2017-12-26T05:03:31.949Z,8.18
2017-12-26T05:04:12.360Z,8.28
2017-12-26T05:04:53.195Z,8.29
2017-12-26T05:05:33.703Z,8.29
2017-12-26T05:06:14.092Z,8.28
2017-12-26T05:06:54.603Z,8.29
2017-12-26T05:07:34.920Z,8.34
2017-12-26T05:08:15.783Z,8.34
2017-12-26T05:08:56.049Z,8.31
2017-12-26T05:09:36.528Z,8.34
2017-12-26T05:10:16.934Z,8.32
2017-12-26T05:10:57.571Z,8.29
2017-12-26T05:11:38.514Z,8.32
2017-12-26T05:12:19.071Z,8.34
2017-12-26T05:12:59.644Z,8.39
2017-12-26T05:13:40.389Z,8.36
2017-12-26T05:14:21.172Z,8.42
2017-12-26T05:15:01.421Z,8.4
2017-12-26T05:15:41.727Z,8.4
2017-12-26T05:16:22.691Z,8.39
2017-12-26T05:17:03.564Z,8.39
2017-12-26T05:17:44.553Z,8.36
2017-12-26T05:18:25.150Z,8.37
2017-12-26T05:19:05.535Z,8.39
2017-12-26T05:19:45.889Z,8.37
2017-12-26T05:20:26.795Z,8.34
2017-12-26T05:21:06.951Z,8.4
2017-12-26T05:21:47.487Z,8.4
2017-12-26T05:22:27.963Z,8.42
2017-12-26T05:23:08.526Z,8.31
2017-12-26T05:23:48.979Z,8.36
2017-12-26T05:24:29.949Z,8.34
2017-12-26T05:25:10.231Z,8.36
2017-12-26T05:25:51.126Z,8.39
2017-12-26T05:26:31.552Z,8.39
2017-12-26T05:27:12.042Z,8.39
2017-12-26T05:27:53.194Z,8.4
2017-12-26T05:28:33.966Z,8.31
2017-12-26T05:29:14.118Z,8.4
2017-12-26T05:29:54.459Z,8.37
2017-12-26T05:30:35.193Z,8.43
2017-12-26T05:31:15.820Z,8.42
2017-12-26T05:31:56.668Z,8.36
2017-12-26T05:32:37.119Z,8.4
2017-12-26T05:33:17.566Z,8.32
2017-12-26T05:33:58.127Z,8.42
2017-12-26T05:34:38.814Z,8.45
2017-12-26T05:35:19.552Z,8.54
2017-12-26T05:35:59.940Z,8.45
2017-12-26T05:36:40.961Z,8.43
2017-12-26T05:37:21.913Z,8.4
2017-12-26T05:38:02.454Z,8.55
2017-12-26T05:38:43.231Z,8.5
2017-12-26T05:39:25.432Z,8.54
2017-12-26T05:40:05.997Z,8.57
2017-12-26T05:40:46.350Z,8.67
2017-12-26T05:41:26.726Z,8.76
2017-12-26T05:42:07.700Z,8.82
2017-12-26T05:42:48.196Z,8.73
2017-12-26T05:43:28.554Z,8.91
2017-12-26T05:44:09.541Z,8.89
2017-12-26T05:44:50.019Z,8.79
2017-12-26T05:45:30.812Z,8.89
2017-12-26T05:46:11.258Z,8.79
2017-12-26T05:46:51.848Z,8.78
2017-12-26T05:47:33.172Z,8.75
2017-12-26T05:48:13.668Z,8.93
2017-12-26T05:48:54.196Z,8.94
2017-12-26T05:49:34.523Z,8.89
2017-12-26T05:50:14.925Z,8.89
2017-12-26T05:50:55.382Z,8.8
2017-12-26T05:51:35.877Z,8.85
2017-12-26T05:52:16.395Z,8.71
2017-12-26T05:52:57.427Z,8.75
2017-12-26T05:53:38.484Z,8.78
2017-12-26T05:54:19.970Z,8.8
2017-12-26T05:55:00.521Z,8.94
2017-12-26T05:55:41.039Z,8.97
2017-12-26T05:56:21.708Z,8.93
2017-12-26T05:57:02.086Z,8.93
2017-12-26T05:57:42.863Z,8.93
2017-12-26T05:58:23.299Z,8.89
2017-12-26T05:59:04.195Z,8.93
2017-12-26T05:59:44.437Z,8.96
2017-12-26T06:00:25.009Z,8.93
2017-12-26T06:01:05.622Z,8.93
2017-12-26T06:01:45.817Z,9.03
2017-12-26T06:02:26.282Z,9.12
2017-12-26T06:03:07.151Z,9.13
2017-12-26T06:03:48.909Z,9.13
2017-12-26T06:04:29.469Z,9.19
2017-12-26T06:05:10.033Z,9.23
2017-12-26T06:05:50.445Z,9.24
2017-12-26T06:06:30.900Z,9.38
2017-12-26T06:07:11.391Z,9.52
2017-12-26T06:07:51.697Z,9.58
2017-12-26T06:08:32.072Z,9.6
2017-12-26T06:09:12.940Z,9.6
2017-12-26T06:09:53.691Z,9.56
2017-12-26T06:10:34.040Z,9.65
2017-12-26T06:11:14.861Z,9.65
2017-12-26T06:11:55.517Z,9.7
2017-12-26T06:12:36.220Z,9.8
2017-12-26T06:13:16.807Z,9.74
2017-12-26T06:13:57.054Z,9.75
2017-12-26T06:14:37.829Z,9.77
2017-12-26T06:15:18.453Z,9.78
2017-12-26T06:15:59.646Z,9.77
2017-12-26T06:16:42.733Z,9.74
2017-12-26T06:17:23.372Z,9.89
2017-12-26T06:18:04.092Z,9.91
2017-12-26T06:18:44.621Z,9.95
2017-12-26T06:19:25.141Z,9.91
2017-12-26T06:20:06.228Z,9.96
2017-12-26T06:20:47.107Z,9.89
2017-12-26T06:21:27.920Z,9.96
2017-12-26T06:22:08.415Z,9.93
2017-12-26T06:22:49.101Z,9.89
2017-12-26T06:23:30.734Z,10.06
2017-12-26T06:24:11.098Z,9.99
2017-12-26T06:24:52.461Z,10.01
2017-12-26T06:25:32.945Z,9.96
2017-12-26T06:26:13.476Z,9.86
2017-12-26T06:26:56.586Z,10.01
2017-12-26T06:27:38.576Z,9.96
2017-12-26T06:28:18.786Z,9.91
2017-12-26T06:28:59.409Z,9.92
2017-12-26T06:29:39.995Z,9.92
2017-12-26T06:30:20.507Z,9.88
2017-12-26T06:31:01.523Z,9.86
2017-12-26T06:31:41.880Z,9.91
2017-12-26T06:32:23.201Z,9.85
2017-12-26T06:33:03.657Z,9.91
2017-12-26T06:33:44.833Z,9.95
2017-12-26T06:34:25.154Z,9.98
2017-12-26T06:35:05.604Z,9.85
2017-12-26T06:35:46.020Z,9.8
2017-12-26T06:36:26.409Z,9.74
2017-12-26T06:37:09.101Z,9.75
2017-12-26T06:37:50.093Z,9.77
2017-12-26T06:39:48.676Z,9.68
2017-12-26T06:43:10.633Z,9.55
2017-12-26T06:46:15.042Z,9.44
2017-12-26T06:46:55.231Z,9.34
2017-12-26T06:47:36.018Z,9.35
2017-12-26T06:48:16.558Z,9.34
2017-12-26T06:48:57.414Z,9.35
2017-12-26T06:49:37.759Z,9.37
2017-12-26T06:50:18.080Z,9.32
2017-12-26T06:50:58.501Z,9.37
2017-12-26T06:51:38.942Z,9.4
2017-12-26T06:52:19.369Z,9.41
2017-12-26T06:52:59.919Z,9.4
2017-12-26T06:53:40.322Z,9.5
2017-12-26T06:54:20.835Z,9.48
2017-12-26T06:56:35.046Z,9.48
2017-12-26T06:57:15.306Z,9.49
2017-12-26T06:57:55.748Z,9.59
2017-12-26T06:58:36.147Z,9.63
2017-12-26T06:59:16.747Z,9.44
2017-12-26T06:59:57.142Z,9.41
2017-12-26T07:00:37.580Z,9.49
2017-12-26T07:01:18.036Z,9.53
2017-12-26T07:01:58.386Z,9.52
2017-12-26T07:02:38.842Z,9.52
2017-12-26T07:03:19.263Z,9.56
2017-12-26T07:06:11.482Z,9.37
2017-12-26T07:06:52.713Z,9.4
2017-12-26T07:07:33.195Z,9.4
2017-12-26T07:08:13.718Z,9.38
2017-12-26T07:08:54.125Z,9.32
2017-12-26T07:09:34.506Z,9.27
2017-12-26T07:10:14.932Z,9.27
2017-12-26T07:10:55.448Z,9.34
2017-12-26T07:11:36.271Z,9.15
2017-12-26T07:12:16.458Z,9.12
2017-12-26T07:12:57.020Z,9.15
2017-12-26T07:13:37.361Z,9.13
2017-12-26T07:14:18.114Z,9.13
2017-12-26T07:14:58.696Z,9.16
2017-12-26T07:15:39.088Z,9.08
2017-12-26T07:16:19.523Z,9.13
2017-12-26T07:16:59.960Z,9.15
2017-12-26T07:17:40.445Z,9.1
2017-12-26T07:18:21.112Z,9.16
2017-12-26T07:19:01.943Z,9.19
2017-12-26T07:19:42.407Z,9.2
2017-12-26T07:20:22.850Z,9.19
2017-12-26T07:21:03.274Z,9.23
2017-12-26T07:21:43.694Z,9.22
2017-12-26T07:22:24.150Z,9.2
2017-12-26T07:23:04.713Z,9.27
2017-12-26T07:23:45.272Z,9.37
2017-12-26T07:27:16.659Z,9.2
2017-12-26T07:27:58.871Z,9.2
2017-12-26T07:28:40.248Z,9.17
2017-12-26T07:29:22.005Z,9.24
2017-12-26T07:30:02.282Z,9.13
2017-12-26T07:30:43.064Z,9.06
2017-12-26T07:31:23.718Z,9.15
2017-12-26T07:32:04.405Z,9.13
2017-12-26T07:32:44.656Z,9.13
2017-12-26T07:33:25.200Z,9.1
2017-12-26T07:34:05.911Z,8.97
2017-12-26T07:34:47.094Z,8.94
2017-12-26T07:35:28.385Z,8.94
2017-12-26T07:36:08.900Z,8.88
2017-12-26T07:36:50.461Z,8.78
2017-12-26T07:37:31.562Z,8.79
2017-12-26T07:38:12.568Z,8.83
2017-12-26T07:38:53.297Z,8.71
2017-12-26T07:39:33.858Z,8.91
2017-12-26T07:40:14.663Z,8.94
2017-12-26T07:40:55.019Z,8.89
2017-12-26T07:41:35.711Z,8.89
2017-12-26T07:42:16.253Z,8.91
2017-12-26T07:42:56.773Z,8.93
2017-12-26T07:43:37.183Z,9.04
2017-12-26T07:44:17.610Z,9.1
2017-12-26T07:44:57.951Z,8.93
2017-12-26T07:45:38.762Z,8.94
2017-12-26T07:46:19.382Z,8.88
2017-12-26T07:46:59.931Z,8.93
2017-12-26T07:47:40.443Z,8.75
2017-12-26T07:48:21.424Z,8.78
2017-12-26T07:49:01.416Z,8.79
2017-12-26T07:49:41.850Z,8.85
2017-12-26T07:50:23.295Z,8.86
2017-12-26T07:51:03.894Z,8.93
2017-12-26T07:51:44.328Z,8.93
2017-12-26T07:52:25.073Z,8.82
2017-12-26T07:53:05.451Z,8.79
2017-12-26T07:53:46.279Z,8.82
2017-12-26T07:54:26.721Z,8.94
2017-12-26T07:55:07.198Z,8.86
2017-12-26T07:55:47.671Z,8.78
2017-12-26T07:56:27.836Z,8.86
2017-12-26T07:57:08.226Z,8.79
2017-12-26T07:57:48.753Z,8.78
2017-12-26T07:58:29.100Z,8.76
2017-12-26T07:59:09.464Z,8.76
2017-12-26T07:59:49.821Z,8.8
2017-12-26T08:00:30.220Z,8.82
2017-12-26T08:05:09.244Z,8.78
2017-12-26T08:08:09.507Z,8.86
2017-12-26T08:10:11.820Z,8.91
2017-12-26T08:11:13.804Z,8.86
2017-12-26T08:11:53.760Z,8.96
2017-12-26T08:12:34.568Z,8.94
2017-12-26T08:13:15.110Z,8.91
2017-12-26T08:13:55.608Z,8.98
2017-12-26T08:14:36.090Z,9.04
2017-12-26T08:15:16.552Z,8.94
2017-12-26T08:15:56.990Z,8.93
2017-12-26T08:16:37.285Z,9
2017-12-26T08:17:17.814Z,8.93
2017-12-26T08:17:58.255Z,9.01
2017-12-26T08:18:38.968Z,9.13
2017-12-26T08:19:20.399Z,9.1
2017-12-26T08:20:00.786Z,9.06
2017-12-26T08:20:41.286Z,9.1
2017-12-26T08:21:22.700Z,9.15
2017-12-26T08:22:03.031Z,9.16
2017-12-26T08:22:43.726Z,9.16
2017-12-26T08:23:24.090Z,9.2
2017-12-26T08:24:04.529Z,9.15
2017-12-26T08:24:44.911Z,9.15
2017-12-26T08:25:25.535Z,9.17
2017-12-26T08:26:06.430Z,9.23
2017-12-26T08:26:46.913Z,9.2
2017-12-26T08:27:27.269Z,9.2
2017-12-26T08:28:07.817Z,9.32
2017-12-26T08:28:49.288Z,9.31
2017-12-26T08:29:29.912Z,9.32
2017-12-26T08:30:10.421Z,9.31
2017-12-26T08:30:52.468Z,9.34
2017-12-26T08:31:32.908Z,9.31
2017-12-26T08:32:13.238Z,9.26
2017-12-26T08:32:53.989Z,9.32
2017-12-26T08:38:14.438Z,9.34
2017-12-26T08:38:54.485Z,9.31
2017-12-26T08:39:36.099Z,9.31
2017-12-26T08:40:16.878Z,9.32
2017-12-26T08:40:58.920Z,9.27
2017-12-26T08:41:39.639Z,9.24
2017-12-26T08:42:20.444Z,9.34
2017-12-26T08:43:02.009Z,9.26
2017-12-26T08:43:42.656Z,9.27
2017-12-26T08:44:24.515Z,9.3
2017-12-26T08:45:06.820Z,9.27
2017-12-26T08:45:51.315Z,9.24
2017-12-26T08:46:32.061Z,9.41
2017-12-26T08:47:15.305Z,9.34
2017-12-26T08:47:55.932Z,9.23
2017-12-26T08:48:38.741Z,9.27
2017-12-26T08:49:19.437Z,9.3
2017-12-26T08:50:00.608Z,9.35
2017-12-26T08:50:42.307Z,9.41
2017-12-26T08:51:22.986Z,9.53
2017-12-26T08:52:06.756Z,9.56
2017-12-26T08:52:47.580Z,9.49
2017-12-26T08:53:28.460Z,9.42
2017-12-26T08:54:09.404Z,9.42
2017-12-26T08:54:53.293Z,9.35
2017-12-26T08:55:35.068Z,9.3
2017-12-26T08:56:18.203Z,9.34
2017-12-26T08:57:01.261Z,9.37
2017-12-26T08:57:43.259Z,9.4
2017-12-26T08:58:27.537Z,9.41
2017-12-26T08:59:08.527Z,9.35
2017-12-26T08:59:48.736Z,9.34
2017-12-26T09:00:29.875Z,9.27
2017-12-26T09:01:10.666Z,9.32
2017-12-26T09:01:52.121Z,9.37
2017-12-26T09:02:33.188Z,9.42
2017-12-26T09:03:14.944Z,9.38
2017-12-26T09:03:57.665Z,9.4
2017-12-26T09:04:39.190Z,9.49
2017-12-26T09:05:21.534Z,9.52
2017-12-26T09:06:05.996Z,9.56
2017-12-26T09:06:46.401Z,9.6
2017-12-26T09:07:30.549Z,9.71
2017-12-26T09:08:11.189Z,9.62
2017-12-26T09:08:52.465Z,9.6
2017-12-26T09:09:35.071Z,9.6
2017-12-26T09:10:17.659Z,9.58
2017-12-26T09:10:58.646Z,9.48
2017-12-26T09:11:40.782Z,9.34
2017-12-26T09:12:22.760Z,9.34
2017-12-26T09:13:03.700Z,9.27
2017-12-26T09:16:07.134Z,9.22
2017-12-26T09:17:41.537Z,8.94
2017-12-26T09:18:25.567Z,8.94
2017-12-26T09:19:06.306Z,8.82
2017-12-26T09:19:48.691Z,8.86
2017-12-26T09:20:29.119Z,8.88
2017-12-26T09:21:10.673Z,8.94
2017-12-26T09:21:52.393Z,8.88
2017-12-26T09:22:33.993Z,8.8
2017-12-26T09:23:15.605Z,8.85
2017-12-26T09:23:56.073Z,8.76
2017-12-26T09:24:38.113Z,8.73
2017-12-26T09:25:19.727Z,8.75
2017-12-26T09:26:00.006Z,8.65
2017-12-26T09:26:40.589Z,8.52
2017-12-26T09:27:21.164Z,8.6
2017-12-26T09:28:06.147Z,8.54
2017-12-26T09:28:49.407Z,8.63
2017-12-26T09:29:30.685Z,8.64
2017-12-26T09:30:12.120Z,8.67
2017-12-26T09:30:52.693Z,8.65
2017-12-26T09:31:34.155Z,8.63
2017-12-26T09:32:15.260Z,8.63
2017-12-26T09:32:56.891Z,8.76
2017-12-26T09:33:38.501Z,8.76
2017-12-26T09:34:19.647Z,8.78
2017-12-26T09:35:00.131Z,8.67
2017-12-26T09:35:40.955Z,8.7
2017-12-26T09:36:21.881Z,8.71
2017-12-26T09:37:03.055Z,8.83
2017-12-26T09:37:43.618Z,8.85
2017-12-26T09:38:24.882Z,8.91
2017-12-26T09:39:05.296Z,8.96
2017-12-26T09:39:46.480Z,8.94
2017-12-26T09:40:26.916Z,8.93
2017-12-26T09:41:08.694Z,8.96
2017-12-26T09:41:47.884Z,9.03
2017-12-26T09:42:28.301Z,8.97
2017-12-26T09:43:08.922Z,8.93
2017-12-26T09:43:50.191Z,8.89
2017-12-26T09:44:30.517Z,8.93
2017-12-26T09:45:11.171Z,8.89
2017-12-26T09:45:51.973Z,8.85
2017-12-26T09:46:32.866Z,8.94
2017-12-26T09:47:13.900Z,8.91
2017-12-26T09:47:54.168Z,8.94
2017-12-26T09:48:34.603Z,8.93
2017-12-26T09:49:15.011Z,8.78
2017-12-26T09:49:55.510Z,8.79
2017-12-26T09:50:37.482Z,8.89
2017-12-26T09:51:17.306Z,8.85
2017-12-26T09:51:58.741Z,8.78
2017-12-26T09:52:39.061Z,8.82
2017-12-26T09:53:20.341Z,8.78
2017-12-26T09:54:03.777Z,8.79
2017-12-26T09:54:42.881Z,8.71
2017-12-26T09:55:23.743Z,8.8
2017-12-26T09:56:04.905Z,8.75
2017-12-26T09:56:44.901Z,8.88
2017-12-26T09:59:31.789Z,8.75
2017-12-26T10:00:13.453Z,8.8
2017-12-26T10:00:53.775Z,8.76
2017-12-26T10:01:34.313Z,8.83
2017-12-26T10:02:14.579Z,8.88
2017-12-26T10:02:55.000Z,8.89
2017-12-26T10:03:35.385Z,8.94
2017-12-26T10:04:15.865Z,8.89
2017-12-26T10:41:35.925Z,8.83
2017-12-26T10:42:25.030Z,8.78
2017-12-26T10:43:05.845Z,8.79
2017-12-26T10:43:46.502Z,8.76
2017-12-26T10:44:26.933Z,8.71
2017-12-26T10:45:08.137Z,8.76
2017-12-26T10:45:48.239Z,8.78
2017-12-26T10:46:28.750Z,8.8
2017-12-26T10:47:11.138Z,8.75
2017-12-26T10:47:51.522Z,8.78
2017-12-26T10:48:32.293Z,8.79
2017-12-26T10:49:12.739Z,8.88
2017-12-26T10:49:53.161Z,8.88
2017-12-26T10:50:33.554Z,8.91
2017-12-26T10:51:14.352Z,8.97
2017-12-26T10:51:54.958Z,8.89
2017-12-26T10:52:35.482Z,8.94
2017-12-26T10:53:16.764Z,9.06
2017-12-26T10:53:58.408Z,9.06
2017-12-26T10:54:38.662Z,9.06
2017-12-26T10:55:19.053Z,9.17
2017-12-26T10:55:59.419Z,9.32
2017-12-26T10:56:40.849Z,9.31
2017-12-26T10:57:21.138Z,9.31
2017-12-26T10:58:02.066Z,9.5
2017-12-26T10:58:42.808Z,9.62
2017-12-26T10:59:24.148Z,9.63
2017-12-26T11:00:05.173Z,9.74
2017-12-26T11:00:45.846Z,9.85
2017-12-26T11:01:26.074Z,9.88
2017-12-26T11:02:06.480Z,9.86
2017-12-26T11:02:47.281Z,9.81
2017-12-26T11:03:27.883Z,9.93
2017-12-26T11:04:08.444Z,9.95
2017-12-26T11:04:49.631Z,10.02
2017-12-26T11:05:30.165Z,10.11
2017-12-26T11:06:11.192Z,10.28
2017-12-26T11:06:51.745Z,10.46
2017-12-26T11:07:32.647Z,10.65